createdAt,value
2022-12-18T00:02:48.749Z,-8.66
2022-12-18T00:06:50.588Z,-8.65
2022-12-18T00:10:52.576Z,-8.61
2022-12-18T00:14:54.517Z,-8.57
2022-12-18T00:18:57.606Z,-8.65
2022-12-18T00:22:59.295Z,-8.67
2022-12-18T00:27:00.976Z,-8.72
2022-12-18T00:31:04.905Z,-8.84
2022-12-18T00:35:08.212Z,-8.89
2022-12-18T00:39:11.876Z,-8.91
2022-12-18T00:43:13.497Z,-8.91
2022-12-18T00:47:15.228Z,-8.92
2022-12-18T00:51:16.794Z,-8.88
2022-12-18T00:55:19.027Z,-8.91
2022-12-18T00:59:22.263Z,-8.99
2022-12-18T01:03:28.507Z,-8.96
2022-12-18T01:07:30.152Z,-8.96
2022-12-18T01:11:32.177Z,-8.93
2022-12-18T01:15:33.764Z,-8.97
2022-12-18T01:19:36.208Z,-8.92
2022-12-18T01:23:40.121Z,-8.88
2022-12-18T01:27:42.114Z,-8.86
2022-12-18T01:31:43.835Z,-8.91
2022-12-18T01:35:45.513Z,-8.89
2022-12-18T01:39:47.169Z,-8.87
2022-12-18T01:43:55.057Z,-8.86
2022-12-18T01:48:04.294Z,-8.80
2022-12-18T01:52:06.058Z,-8.84
2022-12-18T01:56:08.290Z,-8.86
2022-12-18T02:00:16.036Z,-8.86
2022-12-18T02:04:26.370Z,-8.82
2022-12-18T02:08:50.296Z,-8.82
2022-12-18T02:13:17.960Z,-8.84
2022-12-18T02:17:23.072Z,-8.92
2022-12-18T02:21:44.509Z,-9.01
2022-12-18T02:26:08.778Z,-9.00
2022-12-18T02:30:11.618Z,-8.99
2022-12-18T02:34:14.669Z,-8.97
2022-12-18T02:38:18.051Z,-8.96
2022-12-18T02:42:23.963Z,-8.99
2022-12-18T02:46:37.608Z,-8.99
2022-12-18T02:51:22.943Z,-8.89
2022-12-18T02:55:58.524Z,-8.58
2022-12-18T03:00:15.622Z,-8.30
2022-12-18T03:04:27.276Z,-8.09
2022-12-18T03:08:36.396Z,-7.92
2022-12-18T03:12:44.045Z,-7.76
2022-12-18T03:16:48.084Z,-7.66
2022-12-18T03:20:52.647Z,-7.75
2022-12-18T03:24:58.632Z,-7.87
2022-12-18T03:29:10.818Z,-7.89
2022-12-18T03:33:22.735Z,-7.88
2022-12-18T03:37:26.820Z,-7.88
2022-12-18T03:41:32.630Z,-7.95
2022-12-18T03:46:06.589Z,-8.00
2022-12-18T03:50:15.809Z,-8.06
2022-12-18T03:54:22.067Z,-8.09
2022-12-18T03:58:34.347Z,-8.13
2022-12-18T04:02:57.299Z,-8.22
2022-12-18T04:07:08.273Z,-8.25
2022-12-18T04:11:13.040Z,-8.23
2022-12-18T04:15:15.410Z,-8.30
2022-12-18T04:19:18.682Z,-8.42
2022-12-18T04:23:23.470Z,-8.48
2022-12-18T04:27:25.800Z,-8.58
2022-12-18T04:31:28.420Z,-8.63
2022-12-18T04:35:31.218Z,-8.66
2022-12-18T04:39:32.938Z,-8.63
2022-12-18T04:43:40.941Z,-8.66
2022-12-18T04:47:42.762Z,-8.69
2022-12-18T04:51:44.319Z,-8.72
2022-12-18T04:55:45.953Z,-8.73
2022-12-18T04:59:47.512Z,-8.76
2022-12-18T05:03:49.246Z,-8.81
2022-12-18T05:07:50.854Z,-8.86
2022-12-18T05:11:52.487Z,-8.90
2022-12-18T05:15:55.310Z,-8.94
2022-12-18T05:19:56.957Z,-9.03
2022-12-18T05:23:58.523Z,-9.06
2022-12-18T05:28:01.593Z,-9.09
2022-12-18T05:32:03.346Z,-9.19
2022-12-18T05:36:07.900Z,-9.28
2022-12-18T05:40:10.235Z,-9.37
2022-12-18T05:44:11.882Z,-9.43
2022-12-18T05:48:13.718Z,-9.45
2022-12-18T05:52:16.440Z,-9.45
2022-12-18T05:56:20.593Z,-9.48
2022-12-18T06:00:22.272Z,-9.45
2022-12-18T06:04:24.100Z,-9.44
2022-12-18T06:08:25.729Z,-9.42
2022-12-18T06:12:27.370Z,-9.37
2022-12-18T06:16:30.071Z,-9.39
2022-12-18T06:20:33.757Z,-9.37
2022-12-18T06:24:35.585Z,-9.32
2022-12-18T06:28:37.256Z,-9.34
2022-12-18T06:32:38.918Z,-9.37
2022-12-18T06:36:40.502Z,-9.38
2022-12-18T06:40:42.259Z,-9.42
2022-12-18T06:44:43.834Z,-9.41
2022-12-18T06:48:49.466Z,-9.41
2022-12-18T06:52:51.168Z,-9.43
2022-12-18T06:56:52.754Z,-9.42
2022-12-18T07:00:54.358Z,-9.44
2022-12-18T07:04:58.016Z,-9.42
2022-12-18T07:08:59.618Z,-9.46
2022-12-18T07:13:01.214Z,-9.46
2022-12-18T07:17:03.051Z,-9.43
2022-12-18T07:21:08.746Z,-9.50
2022-12-18T07:25:10.478Z,-9.54
2022-12-18T07:29:12.164Z,-9.58
2022-12-18T07:33:13.798Z,-9.50
2022-12-18T07:37:15.402Z,-9.50
2022-12-18T07:41:17.440Z,-9.57
2022-12-18T07:45:19.017Z,-9.63
2022-12-18T07:49:20.726Z,-9.65
2022-12-18T07:53:22.335Z,-9.68
2022-12-18T07:57:49.009Z,-9.61
2022-12-18T08:01:45.825Z,-9.56
2022-12-18T08:05:51.521Z,-9.47
2022-12-18T08:09:53.039Z,-9.38
2022-12-18T08:13:55.311Z,-9.42
2022-12-18T08:17:57.858Z,-9.36
2022-12-18T08:21:59.512Z,-9.37
2022-12-18T08:26:01.106Z,-9.31
2022-12-18T08:30:04.041Z,-9.21
2022-12-18T08:34:05.893Z,-9.10
2022-12-18T08:38:08.276Z,-9.01
2022-12-18T08:42:29.436Z,-9.00
2022-12-18T08:46:37.217Z,-8.92
2022-12-18T08:50:38.989Z,-8.84
2022-12-18T08:54:40.668Z,-8.77
2022-12-18T08:58:43.578Z,-8.58
2022-12-18T09:02:55.502Z,-8.41
2022-12-18T09:06:57.190Z,-8.24
2022-12-18T09:10:59.081Z,-8.08
2022-12-18T09:15:00.660Z,-7.90
2022-12-18T09:19:04.866Z,-7.76
2022-12-18T09:23:07.249Z,-7.62
2022-12-18T09:27:08.892Z,-7.47
2022-12-18T09:31:16.614Z,-7.27
2022-12-18T09:35:18.240Z,-7.10
2022-12-18T09:39:20.111Z,-6.83
2022-12-18T09:43:30.580Z,-6.45
2022-12-18T09:47:37.477Z,-6.05
2022-12-18T09:52:05.043Z,-5.61
2022-12-18T09:56:11.851Z,-5.23
2022-12-18T10:00:20.997Z,-4.86
2022-12-18T10:04:22.763Z,-4.63
2022-12-18T10:08:43.108Z,-4.42
2022-12-18T10:13:04.859Z,-4.25
2022-12-18T10:17:45.003Z,-4.24
2022-12-18T10:22:12.538Z,-4.00
2022-12-18T10:26:14.206Z,-3.69
2022-12-18T10:30:23.565Z,-3.55
2022-12-18T10:34:25.395Z,-3.32
2022-12-18T10:38:32.850Z,-3.14
2022-12-18T10:42:34.706Z,-3.11
2022-12-18T10:46:36.410Z,-2.99
2022-12-18T10:51:09.704Z,-2.90
2022-12-18T10:55:04.543Z,-2.82
2022-12-18T10:59:11.311Z,-2.87
2022-12-18T11:03:40.364Z,-2.68
2022-12-18T11:07:51.132Z,-2.76
2022-12-18T11:11:55.460Z,-2.67
2022-12-18T11:15:57.924Z,-2.58
2022-12-18T11:20:02.259Z,-2.47
2022-12-18T11:24:04.072Z,-2.43
2022-12-18T11:28:26.772Z,-2.30
2022-12-18T11:32:37.100Z,-2.15
2022-12-18T11:36:45.612Z,-1.99
2022-12-18T11:40:57.299Z,-1.96
2022-12-18T11:45:04.478Z,-1.83
2022-12-18T11:49:37.791Z,-1.73
2022-12-18T11:53:41.048Z,-1.46
2022-12-18T11:57:54.033Z,-1.15
2022-12-18T12:02:21.123Z,-1.11
2022-12-18T12:06:48.490Z,-0.97
2022-12-18T12:10:56.556Z,-0.88
2022-12-18T12:15:14.268Z,-0.80
2022-12-18T12:19:35.208Z,-0.81
2022-12-18T12:23:58.319Z,-1.00
2022-12-18T12:28:10.601Z,-0.90
2022-12-18T12:32:15.296Z,-0.96
2022-12-18T12:36:30.668Z,-0.91
2022-12-18T12:40:58.750Z,-0.83
2022-12-18T12:45:01.720Z,-0.75
2022-12-18T12:49:05.744Z,-0.82
2022-12-18T12:53:10.669Z,-1.03
2022-12-18T12:57:31.949Z,-1.21
2022-12-18T13:01:49.433Z,-1.33
2022-12-18T13:05:54.017Z,-1.44
2022-12-18T13:10:23.650Z,-1.65
2022-12-18T13:14:38.918Z,-1.78
2022-12-18T13:18:50.381Z,-2.00
2022-12-18T13:22:52.459Z,-2.10
2022-12-18T13:26:55.074Z,-2.06
2022-12-18T13:30:57.961Z,-2.08
2022-12-18T13:35:29.410Z,-1.95
2022-12-18T13:39:35.497Z,-1.87
2022-12-18T13:43:48.374Z,-1.81
2022-12-18T13:47:51.001Z,-1.80
2022-12-18T13:51:56.272Z,-1.74
2022-12-18T13:55:58.477Z,-1.75
2022-12-18T14:00:24.440Z,-1.83
2022-12-18T14:04:31.298Z,-1.86
2022-12-18T14:08:44.883Z,-1.88
2022-12-18T14:13:00.972Z,-1.89
2022-12-18T14:17:11.300Z,-1.93
2022-12-18T14:21:24.267Z,-1.97
2022-12-18T14:25:27.480Z,-2.03
2022-12-18T14:29:30.859Z,-2.06
2022-12-18T14:33:32.430Z,-2.09
2022-12-18T14:37:34.024Z,-2.07
2022-12-18T14:41:35.806Z,-2.16
2022-12-18T14:45:42.291Z,-2.19
2022-12-18T14:49:45.748Z,-2.24
2022-12-18T14:53:54.382Z,-2.27
2022-12-18T14:57:57.954Z,-2.30
2022-12-18T15:02:18.067Z,-2.33
2022-12-18T15:06:28.670Z,-2.39
2022-12-18T15:10:33.954Z,-2.44
2022-12-18T15:14:39.552Z,-2.51
2022-12-18T15:18:46.161Z,-2.57
2022-12-18T15:22:48.501Z,-2.64
2022-12-18T15:26:50.206Z,-2.79
2022-12-18T15:31:10.926Z,-2.89
2022-12-18T15:35:12.501Z,-3.07
2022-12-18T15:39:14.447Z,-3.31
2022-12-18T15:43:34.718Z,-3.46
2022-12-18T15:47:36.335Z,-3.53
2022-12-18T15:51:39.303Z,-3.55
2022-12-18T15:56:01.295Z,-3.54
2022-12-18T16:00:03.308Z,-3.50
2022-12-18T16:04:06.624Z,-3.44
2022-12-18T16:08:08.214Z,-3.45
2022-12-18T16:12:20.439Z,-3.42
2022-12-18T16:16:22.120Z,-3.39
2022-12-18T16:20:24.812Z,-3.37
2022-12-18T16:24:29.271Z,-3.33
2022-12-18T16:28:30.897Z,-3.26
2022-12-18T16:32:33.975Z,-3.22
2022-12-18T16:36:35.486Z,-3.22
2022-12-18T16:40:59.004Z,-3.20
2022-12-18T16:45:00.632Z,-3.16
2022-12-18T16:49:02.362Z,-3.11
2022-12-18T16:53:04.025Z,-3.08
2022-12-18T16:57:05.665Z,-3.03
2022-12-18T17:01:11.419Z,-2.98
2022-12-18T17:05:13.025Z,-2.96
2022-12-18T17:09:16.536Z,-2.93
2022-12-18T17:13:21.425Z,-2.89
2022-12-18T17:17:27.209Z,-2.82
2022-12-18T17:21:29.163Z,-2.79
2022-12-18T17:25:30.735Z,-2.77
2022-12-18T17:29:32.419Z,-2.80
2022-12-18T17:33:34.036Z,-2.77
2022-12-18T17:37:36.870Z,-2.76
2022-12-18T17:41:38.538Z,-2.66
2022-12-18T17:45:40.669Z,-2.59
2022-12-18T17:49:42.340Z,-2.58
2022-12-18T17:53:44.955Z,-2.55
2022-12-18T17:57:46.831Z,-2.56
2022-12-18T18:01:48.860Z,-2.54
2022-12-18T18:05:58.900Z,-2.58
2022-12-18T18:10:00.451Z,-2.52
2022-12-18T18:14:02.474Z,-2.47
2022-12-18T18:18:04.111Z,-2.41
2022-12-18T18:22:25.088Z,-2.39
2022-12-18T18:26:29.271Z,-2.42
2022-12-18T18:30:31.752Z,-2.41
2022-12-18T18:34:33.549Z,-2.38
2022-12-18T18:38:35.129Z,-2.33
2022-12-18T18:42:36.754Z,-2.27
2022-12-18T18:46:38.348Z,-2.24
2022-12-18T18:50:40.216Z,-2.24
2022-12-18T18:55:03.595Z,-2.20
2022-12-18T18:59:03.754Z,-2.13
2022-12-18T19:03:05.566Z,-2.11
2022-12-18T19:07:07.649Z,-2.08
2022-12-18T19:11:33.161Z,-2.08
2022-12-18T19:15:37.905Z,-2.07
2022-12-18T19:19:40.320Z,-2.06
2022-12-18T19:23:42.168Z,-2.10
2022-12-18T19:27:43.982Z,-2.13
2022-12-18T19:31:45.745Z,-2.08
2022-12-18T19:35:49.051Z,-2.10
2022-12-18T19:39:51.140Z,-2.11
2022-12-18T19:43:52.848Z,-2.07
2022-12-18T19:47:58.559Z,-2.12
2022-12-18T19:52:04.665Z,-2.13
2022-12-18T19:56:11.403Z,-2.15
2022-12-18T20:00:18.630Z,-2.12
2022-12-18T20:04:20.638Z,-2.08
2022-12-18T20:08:22.719Z,-2.05
2022-12-18T20:12:24.474Z,-2.12
2022-12-18T20:16:26.373Z,-2.22
2022-12-18T20:20:28.595Z,-2.27
2022-12-18T20:24:30.319Z,-2.35
2022-12-18T20:28:31.967Z,-2.44
2022-12-18T20:32:37.038Z,-2.52
2022-12-18T20:36:39.828Z,-2.63
2022-12-18T20:40:42.686Z,-2.69
2022-12-18T20:44:45.749Z,-2.69
2022-12-18T20:48:48.207Z,-2.61
2022-12-18T20:52:49.831Z,-2.54
2022-12-18T20:56:51.715Z,-2.49
2022-12-18T21:01:08.281Z,-2.44
2022-12-18T21:05:09.907Z,-2.37
2022-12-18T21:09:12.212Z,-2.30
2022-12-18T21:13:13.868Z,-2.24
2022-12-18T21:17:16.156Z,-2.28
2022-12-18T21:21:21.862Z,-2.30
2022-12-18T21:25:29.728Z,-2.33
2022-12-18T21:29:31.540Z,-2.34
2022-12-18T21:33:33.147Z,-2.26
2022-12-18T21:37:34.751Z,-2.13
2022-12-18T21:41:55.426Z,-2.06
2022-12-18T21:45:58.043Z,-2.08
2022-12-18T21:50:01.375Z,-2.13
2022-12-18T21:54:03.821Z,-2.15
2022-12-18T21:58:05.362Z,-2.19
2022-12-18T22:02:19.704Z,-2.19
2022-12-18T22:06:22.449Z,-2.21
2022-12-18T22:10:24.019Z,-2.22
2022-12-18T22:14:25.876Z,-2.22
2022-12-18T22:18:27.585Z,-2.23
2022-12-18T22:22:29.348Z,-2.21
2022-12-18T22:26:39.529Z,-2.15
2022-12-18T22:30:41.908Z,-2.11
2022-12-18T22:34:43.590Z,-2.10
2022-12-18T22:38:46.839Z,-2.04
2022-12-18T22:42:50.585Z,-2.00
2022-12-18T22:47:05.502Z,-1.99
2022-12-18T22:51:15.659Z,-1.95
2022-12-18T22:55:17.475Z,-1.89
2022-12-18T22:59:20.840Z,-1.93
2022-12-18T23:03:22.466Z,-1.88
2022-12-18T23:07:24.108Z,-1.83
2022-12-18T23:11:26.645Z,-1.76
2022-12-18T23:15:28.723Z,-1.69
2022-12-18T23:19:30.431Z,-1.66
2022-12-18T23:23:36.758Z,-1.64
2022-12-18T23:27:38.320Z,-1.61
2022-12-18T23:31:40.130Z,-1.65
2022-12-18T23:35:41.719Z,-1.63
2022-12-18T23:39:43.406Z,-1.57
2022-12-18T23:43:45.043Z,-1.57
2022-12-18T23:47:51.188Z,-1.56
2022-12-18T23:51:55.165Z,-1.55
2022-12-18T23:55:56.695Z,-1.56
2022-12-18T23:59:59.686Z,-1.49
